createdAt,value
2022-12-04T00:00:00.621Z,8.30
2022-12-04T00:02:27.289Z,8.50
2022-12-04T00:04:53.945Z,8.40
2022-12-04T00:07:20.542Z,8.90
2022-12-04T00:09:47.080Z,8.00
2022-12-04T00:12:13.715Z,8.17
2022-12-04T00:15:00.767Z,7.97
2022-12-04T00:17:26.816Z,7.80
2022-12-04T00:19:53.730Z,7.27
2022-12-04T00:22:21.096Z,7.40
2022-12-04T00:24:47.685Z,7.47
2022-12-04T00:27:14.297Z,8.07
2022-12-04T00:29:40.825Z,7.40
2022-12-04T00:32:07.544Z,8.17
2022-12-04T00:34:37.180Z,7.30
2022-12-04T00:37:03.739Z,7.73
2022-12-04T00:39:30.278Z,7.13
2022-12-04T00:41:56.827Z,7.63
2022-12-04T00:44:23.356Z,7.67
2022-12-04T00:46:50.234Z,7.27
2022-12-04T00:49:16.815Z,7.40
2022-12-04T00:51:43.389Z,7.97
2022-12-04T00:54:09.981Z,6.50
2022-12-04T00:56:36.528Z,8.50
2022-12-04T00:59:03.450Z,7.97
2022-12-04T01:01:30.674Z,7.70
2022-12-04T01:03:57.472Z,6.63
2022-12-04T01:06:32.610Z,7.40
2022-12-04T01:09:01.522Z,7.10
2022-12-04T01:11:29.435Z,7.93
2022-12-04T01:13:56.994Z,7.33
2022-12-04T01:16:27.138Z,8.33
2022-12-04T01:18:53.995Z,7.17
2022-12-04T01:21:20.669Z,7.90
2022-12-04T01:23:47.754Z,6.80
2022-12-04T01:26:14.747Z,7.40
2022-12-04T01:28:41.742Z,6.93
2022-12-04T01:31:11.603Z,7.13
2022-12-04T01:33:39.365Z,7.50
2022-12-04T01:36:09.576Z,7.10
2022-12-04T01:38:36.597Z,7.00
2022-12-04T01:41:03.902Z,8.03
2022-12-04T01:43:32.881Z,6.40
2022-12-04T01:46:00.649Z,6.27
2022-12-04T01:48:31.762Z,7.70
2022-12-04T01:51:04.687Z,6.93
2022-12-04T01:53:31.875Z,6.53
2022-12-04T01:55:58.839Z,6.73
2022-12-04T01:58:31.660Z,7.10
2022-12-04T02:01:07.946Z,6.80
2022-12-04T02:03:36.035Z,6.97
2022-12-04T02:06:02.609Z,7.10
2022-12-04T02:08:29.830Z,6.60
2022-12-04T02:11:17.792Z,6.93
2022-12-04T02:13:56.381Z,7.30
2022-12-04T02:16:41.982Z,5.87
2022-12-04T02:19:30.072Z,6.60
2022-12-04T02:21:59.387Z,6.77
2022-12-04T02:24:35.338Z,6.57
2022-12-04T02:27:15.247Z,6.27
2022-12-04T02:30:07.539Z,6.77
2022-12-04T02:32:51.247Z,6.17
2022-12-04T02:35:29.713Z,5.70
2022-12-04T02:38:06.882Z,7.10
2022-12-04T02:41:05.649Z,6.30
2022-12-04T02:43:50.945Z,7.93
2022-12-04T02:46:31.157Z,6.73
2022-12-04T02:49:02.352Z,7.60
2022-12-04T02:51:32.958Z,6.70
2022-12-04T02:54:05.592Z,6.83
2022-12-04T02:56:37.410Z,7.07
2022-12-04T02:59:16.134Z,6.43
2022-12-04T03:01:46.618Z,6.37
2022-12-04T03:04:22.184Z,6.00
2022-12-04T03:06:57.427Z,6.40
2022-12-04T03:09:58.535Z,7.00
2022-12-04T03:12:42.034Z,5.90
2022-12-04T03:15:16.146Z,5.53
2022-12-04T03:17:58.225Z,6.30
2022-12-04T03:20:25.600Z,6.40
2022-12-04T03:22:59.425Z,5.70
2022-12-04T03:25:32.906Z,6.07
2022-12-04T03:28:07.429Z,6.20
2022-12-04T03:30:44.337Z,6.10
2022-12-04T03:33:18.280Z,5.60
2022-12-04T03:35:51.030Z,5.80
2022-12-04T03:38:41.750Z,6.00
2022-12-04T03:41:20.897Z,5.73
2022-12-04T03:44:06.456Z,5.53
2022-12-04T03:46:48.589Z,5.47
2022-12-04T03:49:27.120Z,6.13
2022-12-04T03:52:04.791Z,6.37
2022-12-04T03:54:41.351Z,5.93
2022-12-04T03:57:15.830Z,5.43
2022-12-04T03:59:55.853Z,5.50
2022-12-04T04:02:28.317Z,5.57
2022-12-04T04:04:58.746Z,5.47
2022-12-04T04:07:35.576Z,5.20
2022-12-04T04:10:07.514Z,5.63
2022-12-04T04:12:39.992Z,4.90
2022-12-04T04:15:28.375Z,5.27
2022-12-04T04:18:15.119Z,6.00
2022-12-04T04:21:05.682Z,5.00
2022-12-04T04:23:57.480Z,5.43
2022-12-04T04:26:27.744Z,5.70
2022-12-04T04:28:54.492Z,5.30
2022-12-04T04:31:36.190Z,5.20
2022-12-04T04:34:19.726Z,4.80
2022-12-04T04:36:53.638Z,5.30
2022-12-04T04:39:27.767Z,5.20
2022-12-04T04:41:57.651Z,5.13
2022-12-04T04:44:30.079Z,4.93
2022-12-04T04:47:02.912Z,5.07
2022-12-04T04:49:33.944Z,5.07
2022-12-04T04:52:01.375Z,4.90
2022-12-04T04:54:29.704Z,5.20
2022-12-04T04:56:56.272Z,5.23
2022-12-04T04:59:22.905Z,5.07
2022-12-04T05:01:49.805Z,5.50
2022-12-04T05:04:16.528Z,4.83
2022-12-04T05:06:43.091Z,4.83
2022-12-04T05:09:09.660Z,4.70
2022-12-04T05:11:36.417Z,4.70
2022-12-04T05:14:06.092Z,5.53
2022-12-04T05:16:32.848Z,4.13
2022-12-04T05:19:17.993Z,4.67
2022-12-04T05:21:44.530Z,5.10
2022-12-04T05:24:11.080Z,4.93
2022-12-04T05:26:37.665Z,5.50
2022-12-04T05:29:04.234Z,4.77
2022-12-04T05:31:34.055Z,4.43
2022-12-04T05:34:00.666Z,5.23
2022-12-04T05:36:27.195Z,4.90
2022-12-04T05:38:53.766Z,4.80
2022-12-04T05:41:20.433Z,4.67
2022-12-04T05:43:47.035Z,4.50
2022-12-04T05:46:13.683Z,5.40
2022-12-04T05:48:40.273Z,4.90
2022-12-04T05:51:08.128Z,5.20
2022-12-04T05:53:35.033Z,4.40
2022-12-04T05:56:03.281Z,5.10
2022-12-04T05:58:29.964Z,5.60
2022-12-04T06:00:56.539Z,4.43
2022-12-04T06:03:23.293Z,4.17
2022-12-04T06:05:49.858Z,4.10
2022-12-04T06:08:16.601Z,4.43
2022-12-04T06:10:43.167Z,4.37
2022-12-04T06:13:09.783Z,5.57
2022-12-04T06:15:40.744Z,4.00
2022-12-04T06:18:08.046Z,4.87
2022-12-04T06:20:34.802Z,4.83
2022-12-04T06:23:01.667Z,4.67
2022-12-04T06:25:28.287Z,5.47
2022-12-04T06:27:54.929Z,4.13
2022-12-04T06:30:21.609Z,4.73
2022-12-04T06:32:48.176Z,4.80
2022-12-04T06:35:14.802Z,4.50
2022-12-04T06:37:41.392Z,4.20
2022-12-04T06:40:08.638Z,4.60
2022-12-04T06:42:35.216Z,4.10
2022-12-04T06:45:01.936Z,4.40
2022-12-04T06:47:28.474Z,3.90
2022-12-04T06:49:56.298Z,4.40
2022-12-04T06:52:23.045Z,4.70
2022-12-04T06:54:49.573Z,4.33
2022-12-04T06:57:16.125Z,4.10
2022-12-04T06:59:42.653Z,4.40
2022-12-04T07:02:09.861Z,4.00
2022-12-04T07:04:36.501Z,4.73
2022-12-04T07:07:03.071Z,4.77
2022-12-04T07:09:29.645Z,6.20
2022-12-04T07:11:56.185Z,10.50
2022-12-04T07:14:22.784Z,8.17
2022-12-04T07:16:49.440Z,6.60
2022-12-04T07:19:16.213Z,5.80
2022-12-04T07:21:43.450Z,6.10
2022-12-04T07:24:15.525Z,5.67
2022-12-04T07:26:42.111Z,8.57
2022-12-04T07:29:10.059Z,9.90
2022-12-04T07:31:36.879Z,6.30
2022-12-04T07:34:03.504Z,6.00
2022-12-04T07:36:30.064Z,6.07
2022-12-04T07:38:56.824Z,5.70
2022-12-04T07:41:23.897Z,5.10
2022-12-04T07:43:50.817Z,5.83
2022-12-04T07:46:20.556Z,4.33
2022-12-04T07:48:47.195Z,4.63
2022-12-04T07:51:20.315Z,5.20
2022-12-04T07:53:47.780Z,4.50
2022-12-04T07:56:15.061Z,5.03
2022-12-04T07:58:42.366Z,4.90
2022-12-04T08:01:15.690Z,4.13
2022-12-04T08:03:47.958Z,5.00
2022-12-04T08:06:15.232Z,4.57
2022-12-04T08:08:41.786Z,3.73
2022-12-04T08:11:11.727Z,4.20
2022-12-04T08:13:38.306Z,4.13
2022-12-04T08:16:06.707Z,4.17
2022-12-04T08:18:33.809Z,4.20
2022-12-04T08:21:09.215Z,4.23
2022-12-04T08:23:36.487Z,3.80
2022-12-04T08:26:03.852Z,6.03
2022-12-04T08:28:31.173Z,5.00
2022-12-04T08:31:04.426Z,4.13
2022-12-04T08:33:31.540Z,4.27
2022-12-04T08:35:58.300Z,4.10
2022-12-04T08:38:24.866Z,3.80
2022-12-04T08:40:51.534Z,4.10
2022-12-04T08:43:18.119Z,3.93
2022-12-04T08:45:44.729Z,4.30
2022-12-04T08:48:11.267Z,4.27
2022-12-04T08:50:37.793Z,4.30
2022-12-04T08:53:04.356Z,4.20
2022-12-04T08:55:31.012Z,4.60
2022-12-04T08:57:57.540Z,3.93
2022-12-04T09:00:25.831Z,3.90
2022-12-04T09:02:52.366Z,4.60
2022-12-04T09:05:18.897Z,4.00
2022-12-04T09:07:45.497Z,4.50
2022-12-04T09:10:12.612Z,4.37
2022-12-04T09:12:39.210Z,4.17
2022-12-04T09:15:06.618Z,9.10
2022-12-04T09:17:35.870Z,8.80
2022-12-04T09:20:04.130Z,9.10
2022-12-04T09:22:51.412Z,7.87
2022-12-04T09:25:18.191Z,6.87
2022-12-04T09:27:44.893Z,6.73
2022-12-04T09:30:12.810Z,6.60
2022-12-04T09:32:39.381Z,5.70
2022-12-04T09:35:06.719Z,6.87
2022-12-04T09:37:33.618Z,6.03
2022-12-04T09:40:00.228Z,6.60
2022-12-04T09:42:44.009Z,6.20
2022-12-04T09:45:24.040Z,5.50
2022-12-04T09:47:54.993Z,6.10
2022-12-04T09:50:42.920Z,5.30
2022-12-04T09:53:18.235Z,5.20
2022-12-04T09:55:56.035Z,4.80
2022-12-04T09:58:28.387Z,5.53
2022-12-04T10:00:56.387Z,4.47
2022-12-04T10:03:27.757Z,4.87
2022-12-04T10:06:05.346Z,4.93
2022-12-04T10:08:41.746Z,4.90
2022-12-04T10:11:20.914Z,4.83
2022-12-04T10:14:17.228Z,3.90
2022-12-04T10:17:15.973Z,4.87
2022-12-04T10:19:48.566Z,4.27
2022-12-04T10:22:43.763Z,4.40
2022-12-04T10:25:22.885Z,4.23
2022-12-04T10:28:02.565Z,3.67
2022-12-04T10:30:33.781Z,4.23
2022-12-04T10:33:11.267Z,4.17
2022-12-04T10:35:39.165Z,4.43
2022-12-04T10:38:23.375Z,4.70
2022-12-04T10:41:00.282Z,6.40
2022-12-04T10:43:47.469Z,4.30
2022-12-04T10:46:27.010Z,4.30
2022-12-04T10:49:00.977Z,4.00
2022-12-04T10:51:31.487Z,3.97
2022-12-04T10:53:58.543Z,4.43
2022-12-04T10:56:26.653Z,4.20
2022-12-04T10:59:17.869Z,3.60
2022-12-04T11:01:45.444Z,4.10
2022-12-04T11:04:25.332Z,4.27
2022-12-04T11:07:04.189Z,3.53
2022-12-04T11:09:32.366Z,4.10
2022-12-04T11:12:17.636Z,4.40
2022-12-04T11:14:47.155Z,3.40
2022-12-04T11:17:19.216Z,4.27
2022-12-04T11:19:46.135Z,3.83
2022-12-04T11:22:15.777Z,4.37
2022-12-04T11:24:43.229Z,3.80
2022-12-04T11:27:32.957Z,4.10
2022-12-04T11:30:03.043Z,3.67
2022-12-04T11:32:32.984Z,3.67
2022-12-04T11:35:07.218Z,3.73
2022-12-04T11:37:36.477Z,4.10
2022-12-04T11:40:15.733Z,3.67
2022-12-04T11:42:42.358Z,3.60
2022-12-04T11:45:22.641Z,4.03
2022-12-04T11:47:57.956Z,3.43
2022-12-04T11:50:39.185Z,3.00
2022-12-04T11:53:20.233Z,5.80
2022-12-04T11:56:16.889Z,21.80
2022-12-04T11:59:09.461Z,24.20
2022-12-04T12:02:01.247Z,35.10
2022-12-04T12:04:45.992Z,41.30
2022-12-04T12:07:27.669Z,41.50
2022-12-04T12:10:19.093Z,41.03
2022-12-04T12:13:17.135Z,41.77
2022-12-04T12:15:58.692Z,41.07
2022-12-04T12:18:30.868Z,39.47
2022-12-04T12:21:33.755Z,39.47
2022-12-04T12:24:22.931Z,38.33
2022-12-04T12:27:33.222Z,37.27
2022-12-04T12:30:09.486Z,36.20
2022-12-04T12:32:39.109Z,34.53
2022-12-04T12:35:26.103Z,33.83
2022-12-04T12:37:56.130Z,34.70
2022-12-04T12:40:33.900Z,32.97
2022-12-04T12:43:10.529Z,33.70
2022-12-04T12:46:07.869Z,32.57
2022-12-04T12:48:52.485Z,33.40
2022-12-04T12:51:35.215Z,31.90
2022-12-04T12:54:28.286Z,31.47
2022-12-04T12:57:02.278Z,30.90
2022-12-04T12:59:29.222Z,30.80
2022-12-04T13:04:43.463Z,28.43
2022-12-04T13:07:28.044Z,31.47
2022-12-04T13:10:14.965Z,28.77
2022-12-04T13:12:52.672Z,27.80
2022-12-04T13:15:22.677Z,27.63
2022-12-04T13:17:52.977Z,28.53
2022-12-04T13:20:28.232Z,26.80
2022-12-04T13:23:11.744Z,26.23
2022-12-04T13:25:56.152Z,23.37
2022-12-04T13:28:46.098Z,25.60
2022-12-04T13:31:26.933Z,24.43
2022-12-04T13:34:07.881Z,13.60
2022-12-04T13:36:59.392Z,21.60
2022-12-04T13:39:50.242Z,21.60
2022-12-04T13:42:23.964Z,20.43
2022-12-04T13:44:59.725Z,20.07
2022-12-04T13:47:29.817Z,19.93
2022-12-04T13:50:30.477Z,19.67
2022-12-04T13:52:57.877Z,18.73
2022-12-04T13:55:31.994Z,18.40
2022-12-04T13:58:02.495Z,18.77
2022-12-04T14:00:32.575Z,19.30
2022-12-04T14:03:05.835Z,17.50
2022-12-04T14:05:43.249Z,18.03
2022-12-04T14:08:19.116Z,16.40
2022-12-04T14:10:57.497Z,16.73
2022-12-04T14:13:29.165Z,15.07
2022-12-04T14:16:09.969Z,15.43
2022-12-04T14:18:37.053Z,16.10
2022-12-04T14:21:05.900Z,16.37
2022-12-04T14:23:38.389Z,16.43
2022-12-04T14:26:18.400Z,14.60
2022-12-04T14:28:45.235Z,14.30
2022-12-04T14:31:17.550Z,14.10
2022-12-04T14:33:57.813Z,13.63
2022-12-04T14:36:32.214Z,14.37
2022-12-04T14:39:07.990Z,13.80
2022-12-04T14:41:34.880Z,13.97
2022-12-04T14:44:01.787Z,13.13
2022-12-04T14:46:43.709Z,13.53
2022-12-04T14:49:35.692Z,13.17
2022-12-04T14:52:23.910Z,12.50
2022-12-04T14:55:01.137Z,13.50
2022-12-04T14:57:36.465Z,12.40
2022-12-04T15:00:05.610Z,14.10
2022-12-04T15:02:38.292Z,12.07
2022-12-04T15:05:15.801Z,11.97
2022-12-04T15:07:49.110Z,11.70
2022-12-04T15:10:43.836Z,12.10
2022-12-04T15:13:11.001Z,10.97
2022-12-04T15:15:44.385Z,12.33
2022-12-04T15:18:16.312Z,10.20
2022-12-04T15:20:58.263Z,9.60
2022-12-04T15:23:33.820Z,11.77
2022-12-04T15:26:02.983Z,10.50
2022-12-04T15:28:35.088Z,9.83
2022-12-04T15:31:03.877Z,9.73
2022-12-04T15:33:35.208Z,10.47
2022-12-04T15:36:13.779Z,9.47
2022-12-04T15:38:40.834Z,9.73
2022-12-04T15:41:24.182Z,9.90
2022-12-04T15:43:50.712Z,9.70
2022-12-04T15:46:37.837Z,8.57
2022-12-04T15:49:18.840Z,9.17
2022-12-04T15:51:46.912Z,8.73
2022-12-04T15:54:20.241Z,8.73
2022-12-04T15:57:01.498Z,8.80
2022-12-04T15:59:29.541Z,7.97
2022-12-04T16:02:01.563Z,8.13
2022-12-04T16:04:29.401Z,8.00
2022-12-04T16:06:56.271Z,8.63
2022-12-04T16:09:22.831Z,8.40
2022-12-04T16:12:14.782Z,8.27
2022-12-04T16:14:41.338Z,7.43
2022-12-04T16:17:10.591Z,7.50
2022-12-04T16:19:39.493Z,7.40
2022-12-04T16:22:26.229Z,8.60
2022-12-04T16:24:53.589Z,7.83
2022-12-04T16:27:23.531Z,8.07
2022-12-04T16:29:51.163Z,7.10
2022-12-04T16:32:20.180Z,7.77
2022-12-04T16:34:48.587Z,10.50
2022-12-04T16:37:19.006Z,13.03
2022-12-04T16:39:45.621Z,10.37
2022-12-04T16:42:21.484Z,10.00
2022-12-04T16:44:48.622Z,9.30
2022-12-04T16:47:15.736Z,9.87
2022-12-04T16:49:43.889Z,9.33
2022-12-04T16:52:12.039Z,9.10
2022-12-04T16:54:39.572Z,8.87
2022-12-04T16:57:07.216Z,7.90
2022-12-04T16:59:33.889Z,8.83
2022-12-04T17:02:01.410Z,8.20
2022-12-04T17:04:28.183Z,8.30
2022-12-04T17:06:54.861Z,7.70
2022-12-04T17:09:21.591Z,7.73
2022-12-04T17:11:48.164Z,6.87
2022-12-04T17:14:14.856Z,8.00
2022-12-04T17:16:43.110Z,6.80
2022-12-04T17:19:11.201Z,7.07
2022-12-04T17:21:38.161Z,7.17
2022-12-04T17:24:05.136Z,6.90
2022-12-04T17:26:31.957Z,6.77
2022-12-04T17:28:58.506Z,7.30
2022-12-04T17:31:26.736Z,8.10
2022-12-04T17:33:53.901Z,6.90
2022-12-04T17:36:23.397Z,7.00
2022-12-04T17:38:56.944Z,7.50
2022-12-04T17:41:23.918Z,6.83
2022-12-04T17:43:50.627Z,6.77
2022-12-04T17:46:21.422Z,7.87
2022-12-04T17:48:48.719Z,6.23
2022-12-04T17:51:19.036Z,7.27
2022-12-04T17:53:45.726Z,6.80
2022-12-04T17:56:18.246Z,7.00
2022-12-04T17:58:45.632Z,6.77
2022-12-04T18:01:14.964Z,7.37
2022-12-04T18:03:43.240Z,6.70
2022-12-04T18:06:18.396Z,7.60
2022-12-04T18:08:49.879Z,6.90
2022-12-04T18:11:20.651Z,6.17
2022-12-04T18:13:49.409Z,7.50
2022-12-04T18:16:16.226Z,6.60
2022-12-04T18:18:46.495Z,5.97
2022-12-04T18:21:14.105Z,8.47
2022-12-04T18:23:45.677Z,5.83
2022-12-04T18:26:16.492Z,7.53
2022-12-04T18:28:43.709Z,6.70
2022-12-04T18:31:10.816Z,7.30
2022-12-04T18:33:39.029Z,6.63
2022-12-04T18:36:06.729Z,6.50
2022-12-04T18:38:33.356Z,6.10
2022-12-04T18:41:03.975Z,6.23
2022-12-04T18:43:34.156Z,6.10
2022-12-04T18:46:07.130Z,6.40
2022-12-04T18:48:35.353Z,6.47
2022-12-04T18:51:02.247Z,6.63
2022-12-04T18:53:29.022Z,5.73
2022-12-04T18:55:55.575Z,5.70
2022-12-04T18:58:22.826Z,6.90
2022-12-04T19:00:51.583Z,5.43
2022-12-04T19:03:18.352Z,6.57
2022-12-04T19:05:51.758Z,6.13
2022-12-04T19:08:18.366Z,5.73
2022-12-04T19:10:45.002Z,6.60
2022-12-04T19:13:11.588Z,5.93
2022-12-04T19:15:44.596Z,6.20
2022-12-04T19:18:11.409Z,5.90
2022-12-04T19:20:41.965Z,6.20
2022-12-04T19:23:08.809Z,6.60
2022-12-04T19:25:35.434Z,5.87
2022-12-04T19:28:03.221Z,6.00
2022-12-04T19:30:30.197Z,5.90
2022-12-04T19:32:57.134Z,7.10
2022-12-04T19:35:23.705Z,6.23
2022-12-04T19:37:54.497Z,5.00
2022-12-04T19:40:21.465Z,5.60
2022-12-04T19:42:48.052Z,6.87
2022-12-04T19:45:17.232Z,5.77
2022-12-04T19:47:43.755Z,5.70
2022-12-04T19:50:10.802Z,5.57
2022-12-04T19:52:37.375Z,4.77
2022-12-04T19:55:04.251Z,5.87
2022-12-04T19:57:30.801Z,6.43
2022-12-04T19:59:57.408Z,5.80
2022-12-04T20:02:24.135Z,6.10
2022-12-04T20:04:50.714Z,5.73
2022-12-04T20:07:17.289Z,5.50
2022-12-04T20:09:52.009Z,5.80
2022-12-04T20:12:19.390Z,5.30
2022-12-04T20:14:46.009Z,5.30
2022-12-04T20:17:12.599Z,6.53
2022-12-04T20:19:39.227Z,5.00
2022-12-04T20:22:05.815Z,5.03
2022-12-04T20:24:32.492Z,5.50
2022-12-04T20:27:00.951Z,6.13
2022-12-04T20:29:27.617Z,6.37
2022-12-04T20:31:54.207Z,5.53
2022-12-04T20:34:21.465Z,5.13
2022-12-04T20:36:49.093Z,5.73
2022-12-04T20:39:17.262Z,5.17
2022-12-04T20:41:44.007Z,5.43
2022-12-04T20:44:16.004Z,6.00
2022-12-04T20:46:42.936Z,5.60
2022-12-04T20:49:18.828Z,8.40
2022-12-04T20:51:47.921Z,6.47
2022-12-04T20:54:18.474Z,5.30
2022-12-04T20:56:45.920Z,6.03
2022-12-04T20:59:14.578Z,5.07
2022-12-04T21:01:42.882Z,4.87
2022-12-04T21:04:09.905Z,6.13
2022-12-04T21:06:39.933Z,5.40
2022-12-04T21:09:15.750Z,5.20
2022-12-04T21:11:45.154Z,4.93
2022-12-04T21:14:34.069Z,7.03
2022-12-04T21:17:01.526Z,5.90
2022-12-04T21:19:30.055Z,5.73
2022-12-04T21:21:57.011Z,4.97
2022-12-04T21:24:26.473Z,5.67
2022-12-04T21:26:54.100Z,5.13
2022-12-04T21:29:21.278Z,6.67
2022-12-04T21:31:47.953Z,6.63
2022-12-04T21:34:16.906Z,6.00
2022-12-04T21:36:43.990Z,13.17
2022-12-04T21:39:10.840Z,14.43
2022-12-04T21:41:56.193Z,11.67
2022-12-04T21:44:23.325Z,12.47
2022-12-04T21:46:50.657Z,11.90
2022-12-04T21:49:18.894Z,10.80
2022-12-04T21:51:57.386Z,11.00
2022-12-04T21:54:26.310Z,10.50
2022-12-04T21:56:52.850Z,9.80
2022-12-04T21:59:19.423Z,10.03
2022-12-04T22:01:46.115Z,9.50
2022-12-04T22:04:12.963Z,9.60
2022-12-04T22:06:39.755Z,10.67
2022-12-04T22:09:08.556Z,10.60
2022-12-04T22:11:35.371Z,8.80
2022-12-04T22:14:02.122Z,8.47
2022-12-04T22:16:30.965Z,9.13
2022-12-04T22:18:59.073Z,8.87
2022-12-04T22:21:26.793Z,9.13
2022-12-04T22:23:58.261Z,9.10
2022-12-04T22:26:25.352Z,8.73
2022-12-04T22:28:52.167Z,9.80
2022-12-04T22:31:23.941Z,8.80
2022-12-04T22:33:53.027Z,9.07
2022-12-04T22:36:22.124Z,9.17
2022-12-04T22:41:36.131Z,8.63
2022-12-04T22:44:02.861Z,9.20
2022-12-04T22:46:29.512Z,8.13
2022-12-04T22:48:56.163Z,8.87
2022-12-04T22:51:23.052Z,8.80
2022-12-04T22:53:55.796Z,9.00
2022-12-04T22:56:31.599Z,7.90
2022-12-04T22:58:59.228Z,8.47
2022-12-04T23:01:26.870Z,9.13
2022-12-04T23:03:53.944Z,9.03
2022-12-04T23:06:22.435Z,8.00
2022-12-04T23:08:53.383Z,8.40
2022-12-04T23:11:21.678Z,8.83
2022-12-04T23:13:56.393Z,8.73
2022-12-04T23:16:24.542Z,8.90
2022-12-04T23:18:51.155Z,7.63
2022-12-04T23:21:18.948Z,7.93
2022-12-04T23:23:46.729Z,8.00
2022-12-04T23:26:16.133Z,8.60
2022-12-04T23:28:43.316Z,8.10
2022-12-04T23:31:10.883Z,8.60
2022-12-04T23:33:38.423Z,7.10
2022-12-04T23:36:06.874Z,8.30
2022-12-04T23:38:35.513Z,7.80
2022-12-04T23:41:13.038Z,7.60
2022-12-04T23:43:40.650Z,8.07
2022-12-04T23:46:11.383Z,8.13
2022-12-04T23:48:39.740Z,8.60
2022-12-04T23:51:07.364Z,7.50
2022-12-04T23:53:34.207Z,7.47
2022-12-04T23:56:22.861Z,7.47
2022-12-04T23:58:51.599Z,7.43
